Terminal Aerodrome Forecast
Issued by NWS

Home | Current Version | Previous Version | Text Only | Print | Product List | Glossary On
Versions: 1 2 3 4 5 6 7 8 9 10 11 12 13 14 15 16 17 18 19 20 21 22 23 24 25 26
000
FTUS41 KPBZ 222300
TAFZZV
TAF
KZZV 222329Z 2300/2324 21003KT P6SM FEW050
     FM231000 00000KT 1SM BR SKC
     FM231300 25010KT P6SM SCT030 BKN100
     FM231600 28012G18KT 5SM -SHRA VCTS BKN035CB
     FM232200 30009G15KT P6SM SCT030=

USA.gov is the U.S. government's official web portal to all federal, state and local government web resources and services.